sensor_id;sensor_type;location;lat;lon;timestamp;pressure;altitude;pressure_sealevel;temperature;humidity
35489;BME280;21602;55.670;37.578;2022-08-18T00:00:53;99459.88;;;23.76;55.85
35489;BME280;21602;55.670;37.578;2022-08-18T00:03:19;99458.16;;;23.89;55.66
35489;BME280;21602;55.670;37.578;2022-08-18T00:05:45;99466.16;;;23.94;54.71
35489;BME280;21602;55.670;37.578;2022-08-18T00:08:10;99464.25;;;24.03;55.03
35489;BME280;21602;55.670;37.578;2022-08-18T00:10:39;99469.06;;;24.15;54.92
35489;BME280;21602;55.670;37.578;2022-08-18T00:13:06;99469.84;;;24.15;54.16
35489;BME280;21602;55.670;37.578;2022-08-18T00:15:32;99473.38;;;24.16;53.64
35489;BME280;21602;55.670;37.578;2022-08-18T00:17:57;99476.63;;;24.26;53.44
35489;BME280;21602;55.670;37.578;2022-08-18T00:20:24;99474.69;;;24.36;52.93
35489;BME280;21602;55.670;37.578;2022-08-18T00:22:50;99478.53;;;24.43;52.95
35489;BME280;21602;55.670;37.578;2022-08-18T00:25:18;99482.75;;;24.41;52.65
35489;BME280;21602;55.670;37.578;2022-08-18T00:27:43;99476.59;;;24.35;52.87
35489;BME280;21602;55.670;37.578;2022-08-18T00:30:13;99475.78;;;24.35;52.97
35489;BME280;21602;55.670;37.578;2022-08-18T00:32:42;99480.59;;;24.29;53.07
35489;BME280;21602;55.670;37.578;2022-08-18T00:35:14;99471.00;;;24.23;52.79
35489;BME280;21602;55.670;37.578;2022-08-18T00:37:41;99470.97;;;24.06;53.20
35489;BME280;21602;55.670;37.578;2022-08-18T00:40:10;99464.41;;;23.89;53.28
35489;BME280;21602;55.670;37.578;2022-08-18T00:42:43;99470.31;;;23.83;53.46
35489;BME280;21602;55.670;37.578;2022-08-18T00:45:12;99471.09;;;23.74;53.44
35489;BME280;21602;55.670;37.578;2022-08-18T00:47:38;99474.13;;;23.73;53.99
35489;BME280;21602;55.670;37.578;2022-08-18T00:50:06;99473.34;;;23.81;54.02
35489;BME280;21602;55.670;37.578;2022-08-18T00:52:32;99474.94;;;23.82;53.80
35489;BME280;21602;55.670;37.578;2022-08-18T00:54:59;99490.34;;;23.87;53.71
35489;BME280;21602;55.670;37.578;2022-08-18T00:57:30;99488.75;;;23.77;54.22
35489;BME280;21602;55.670;37.578;2022-08-18T01:00:02;99490.00;;;23.71;54.29
35489;BME280;21602;55.670;37.578;2022-08-18T01:02:39;99502.75;;;23.53;54.47
35489;BME280;21602;55.670;37.578;2022-08-18T01:05:15;99492.47;;;23.41;55.08
35489;BME280;21602;55.670;37.578;2022-08-18T01:07:44;99487.63;;;23.38;54.95
35489;BME280;21602;55.670;37.578;2022-08-18T01:10:13;99479.59;;;23.33;55.15
35489;BME280;21602;55.670;37.578;2022-08-18T01:12:44;99477.81;;;23.29;55.32
35489;BME280;21602;55.670;37.578;2022-08-18T01:15:11;99482.63;;;23.23;55.64
35489;BME280;21602;55.670;37.578;2022-08-18T01:17:38;99477.16;;;23.23;55.93
35489;BME280;21602;55.670;37.578;2022-08-18T01:20:29;99473.50;;;23.28;55.34
35489;BME280;21602;55.670;37.578;2022-08-18T01:23:16;99469.97;;;23.27;55.20
35489;BME280;21602;55.670;37.578;2022-08-18T01:25:44;99476.38;;;23.22;55.33
35489;BME280;21602;55.670;37.578;2022-08-18T01:28:42;99472.00;;;23.21;55.88
35489;BME280;21602;55.670;37.578;2022-08-18T01:31:10;99478.06;;;23.10;55.87
35489;BME280;21602;55.670;37.578;2022-08-18T01:33:42;99474.16;;;22.93;56.18
35489;BME280;21602;55.670;37.578;2022-08-18T01:36:18;99483.50;;;22.87;57.32
35489;BME280;21602;55.670;37.578;2022-08-18T01:38:48;99482.84;;;22.82;56.88
35489;BME280;21602;55.670;37.578;2022-08-18T01:41:19;99482.38;;;22.80;57.04
35489;BME280;21602;55.670;37.578;2022-08-18T01:43:46;99485.50;;;22.73;57.25
35489;BME280;21602;55.670;37.578;2022-08-18T01:46:12;99483.56;;;22.65;57.50
35489;BME280;21602;55.670;37.578;2022-08-18T01:48:38;99490.22;;;22.59;57.84
35489;BME280;21602;55.670;37.578;2022-08-18T01:51:06;99495.78;;;22.54;58.23
35489;BME280;21602;55.670;37.578;2022-08-18T01:53:32;99491.66;;;22.56;58.52
35489;BME280;21602;55.670;37.578;2022-08-18T01:55:59;99491.81;;;22.60;58.55
35489;BME280;21602;55.670;37.578;2022-08-18T01:58:25;99492.31;;;22.62;58.47
35489;BME280;21602;55.670;37.578;2022-08-18T02:00:54;99498.16;;;22.46;58.30
35489;BME280;21602;55.670;37.578;2022-08-18T02:03:27;99494.16;;;22.30;58.80
35489;BME280;21602;55.670;37.578;2022-08-18T02:05:59;99499.13;;;22.28;59.09
35489;BME280;21602;55.670;37.578;2022-08-18T02:08:26;99496.41;;;22.28;59.10
35489;BME280;21602;55.670;37.578;2022-08-18T02:10:51;99503.91;;;22.31;59.09
35489;BME280;21602;55.670;37.578;2022-08-18T02:13:17;99505.63;;;22.41;59.02
35489;BME280;21602;55.670;37.578;2022-08-18T02:15:44;99508.38;;;22.49;59.19
35489;BME280;21602;55.670;37.578;2022-08-18T02:18:14;99508.09;;;22.51;58.90
35489;BME280;21602;55.670;37.578;2022-08-18T02:20:42;99512.97;;;22.40;58.61
35489;BME280;21602;55.670;37.578;2022-08-18T02:23:09;99516.00;;;22.39;58.89
35489;BME280;21602;55.670;37.578;2022-08-18T02:25:36;99512.34;;;22.43;58.74
35489;BME280;21602;55.670;37.578;2022-08-18T02:28:03;99518.59;;;22.44;58.85
35489;BME280;21602;55.670;37.578;2022-08-18T02:30:33;99522.22;;;22.39;59.41
35489;BME280;21602;55.670;37.578;2022-08-18T02:32:59;99527.69;;;22.62;58.96
35489;BME280;21602;55.670;37.578;2022-08-18T02:35:26;99532.50;;;22.87;58.55
35489;BME280;21602;55.670;37.578;2022-08-18T02:38:01;99522.63;;;22.91;57.91
35489;BME280;21602;55.670;37.578;2022-08-18T02:40:27;99518.81;;;22.92;57.69
35489;BME280;21602;55.670;37.578;2022-08-18T02:42:54;99525.03;;;22.93;57.75
35489;BME280;21602;55.670;37.578;2022-08-18T02:45:21;99531.13;;;22.90;57.87
35489;BME280;21602;55.670;37.578;2022-08-18T02:47:51;99527.72;;;22.84;57.57
35489;BME280;21602;55.670;37.578;2022-08-18T02:50:17;99530.41;;;22.62;58.11
35489;BME280;21602;55.670;37.578;2022-08-18T02:52:44;99529.53;;;22.53;57.89
35489;BME280;21602;55.670;37.578;2022-08-18T02:55:10;99536.94;;;22.38;58.31
35489;BME280;21602;55.670;37.578;2022-08-18T02:57:41;99537.38;;;22.32;58.77
35489;BME280;21602;55.670;37.578;2022-08-18T03:00:08;99535.16;;;22.34;59.06
35489;BME280;21602;55.670;37.578;2022-08-18T03:02:37;99528.31;;;22.36;58.84
35489;BME280;21602;55.670;37.578;2022-08-18T03:05:04;99524.84;;;22.44;59.27
35489;BME280;21602;55.670;37.578;2022-08-18T03:07:30;99529.75;;;22.56;58.93
35489;BME280;21602;55.670;37.578;2022-08-18T03:09:56;99526.59;;;22.63;58.87
35489;BME280;21602;55.670;37.578;2022-08-18T03:12:21;99523.78;;;22.54;58.90
35489;BME280;21602;55.670;37.578;2022-08-18T03:14:47;99527.09;;;22.65;59.21
35489;BME280;21602;55.670;37.578;2022-08-18T03:17:13;99527.78;;;22.70;58.89
35489;BME280;21602;55.670;37.578;2022-08-18T03:19:39;99532.41;;;22.70;58.53
35489;BME280;21602;55.670;37.578;2022-08-18T03:22:07;99536.00;;;22.79;58.51
35489;BME280;21602;55.670;37.578;2022-08-18T03:24:33;99525.03;;;22.93;58.90
35489;BME280;21602;55.670;37.578;2022-08-18T03:27:04;99529.31;;;22.85;58.15
35489;BME280;21602;55.670;37.578;2022-08-18T03:29:34;99527.72;;;22.84;58.48
35489;BME280;21602;55.670;37.578;2022-08-18T03:32:02;99523.75;;;22.90;58.76
35489;BME280;21602;55.670;37.578;2022-08-18T03:34:29;99519.44;;;22.89;58.13
35489;BME280;21602;55.670;37.578;2022-08-18T03:36:55;99523.44;;;22.69;57.92
35489;BME280;21602;55.670;37.578;2022-08-18T03:39:20;99523.63;;;22.51;58.52
35489;BME280;21602;55.670;37.578;2022-08-18T03:41:50;99527.00;;;22.34;59.06
35489;BME280;21602;55.670;37.578;2022-08-18T03:44:20;99514.19;;;22.34;59.97
35489;BME280;21602;55.670;37.578;2022-08-18T03:46:47;99517.59;;;22.40;59.79
35489;BME280;21602;55.670;37.578;2022-08-18T03:49:13;99516.25;;;22.51;59.80
35489;BME280;21602;55.670;37.578;2022-08-18T03:51:41;99531.22;;;22.62;59.43
35489;BME280;21602;55.670;37.578;2022-08-18T03:54:16;99525.78;;;22.62;59.53
35489;BME280;21602;55.670;37.578;2022-08-18T03:56:44;99519.16;;;22.55;59.25
35489;BME280;21602;55.670;37.578;2022-08-18T03:59:15;99525.84;;;22.48;59.89
35489;BME280;21602;55.670;37.578;2022-08-18T04:01:43;99524.44;;;22.51;59.57
35489;BME280;21602;55.670;37.578;2022-08-18T04:04:12;99522.13;;;22.44;59.74
35489;BME280;21602;55.670;37.578;2022-08-18T04:06:45;99524.19;;;22.61;60.77
35489;BME280;21602;55.670;37.578;2022-08-18T04:09:15;99527.78;;;22.70;60.00
35489;BME280;21602;55.670;37.578;2022-08-18T04:11:42;99532.03;;;22.63;59.52
35489;BME280;21602;55.670;37.578;2022-08-18T04:14:12;99526.34;;;22.51;59.62
35489;BME280;21602;55.670;37.578;2022-08-18T04:16:38;99532.94;;;22.58;59.92
35489;BME280;21602;55.670;37.578;2022-08-18T04:19:04;99526.97;;;22.70;60.26
35489;BME280;21602;55.670;37.578;2022-08-18T04:21:33;99524.34;;;22.87;60.03
35489;BME280;21602;55.670;37.578;2022-08-18T04:24:01;99523.22;;;23.11;59.55
35489;BME280;21602;55.670;37.578;2022-08-18T04:26:31;99528.44;;;23.30;58.88
35489;BME280;21602;55.670;37.578;2022-08-18T04:28:57;99530.28;;;23.43;58.51
35489;BME280;21602;55.670;37.578;2022-08-18T04:31:25;99526.13;;;23.45;58.69
35489;BME280;21602;55.670;37.578;2022-08-18T04:33:51;99527.09;;;23.49;58.15
35489;BME280;21602;55.670;37.578;2022-08-18T04:36:17;99532.41;;;23.55;58.59
35489;BME280;21602;55.670;37.578;2022-08-18T04:38:43;99528.56;;;23.56;58.13
35489;BME280;21602;55.670;37.578;2022-08-18T04:41:11;99526.38;;;23.66;57.70
35489;BME280;21602;55.670;37.578;2022-08-18T04:43:38;99533.00;;;23.74;58.29
35489;BME280;21602;55.670;37.578;2022-08-18T04:46:04;99530.75;;;23.76;57.44
35489;BME280;21602;55.670;37.578;2022-08-18T04:48:34;99542.75;;;23.66;57.07
35489;BME280;21602;55.670;37.578;2022-08-18T04:51:15;99543.00;;;23.56;57.11
35489;BME280;21602;55.670;37.578;2022-08-18T04:53:42;99545.78;;;23.34;57.92
35489;BME280;21602;55.670;37.578;2022-08-18T04:56:23;99547.09;;;23.36;57.88
35489;BME280;21602;55.670;37.578;2022-08-18T04:58:59;99542.13;;;23.38;57.50
35489;BME280;21602;55.670;37.578;2022-08-18T05:01:29;99545.78;;;23.34;57.66
35489;BME280;21602;55.670;37.578;2022-08-18T05:03:57;99540.53;;;23.37;57.64
35489;BME280;21602;55.670;37.578;2022-08-18T05:06:25;99541.00;;;23.39;57.40
35489;BME280;21602;55.670;37.578;2022-08-18T05:08:57;99546.72;;;23.29;57.67
35489;BME280;21602;55.670;37.578;2022-08-18T05:11:26;99553.78;;;23.30;57.96
35489;BME280;21602;55.670;37.578;2022-08-18T05:13:58;99541.94;;;23.35;58.18
35489;BME280;21602;55.670;37.578;2022-08-18T05:16:25;99547.75;;;23.42;57.97
35489;BME280;21602;55.670;37.578;2022-08-18T05:18:52;99547.22;;;23.31;57.65
35489;BME280;21602;55.670;37.578;2022-08-18T05:21:18;99541.31;;;23.38;57.65
35489;BME280;21602;55.670;37.578;2022-08-18T05:23:47;99545.88;;;23.51;57.92
35489;BME280;21602;55.670;37.578;2022-08-18T05:26:16;99550.72;;;23.63;57.67
35489;BME280;21602;55.670;37.578;2022-08-18T05:28:43;99545.00;;;23.73;57.47
35489;BME280;21602;55.670;37.578;2022-08-18T05:31:13;99540.88;;;23.84;56.76
35489;BME280;21602;55.670;37.578;2022-08-18T05:33:40;99541.53;;;23.90;56.49
35489;BME280;21602;55.670;37.578;2022-08-18T05:42:26;99545.41;;;24.15;55.83
35489;BME280;21602;55.670;37.578;2022-08-18T05:44:54;99543.34;;;24.20;56.00
35489;BME280;21602;55.670;37.578;2022-08-18T05:47:27;99544.00;;;24.26;55.66
35489;BME280;21602;55.670;37.578;2022-08-18T05:49:56;99544.16;;;24.30;55.65
35489;BME280;21602;55.670;37.578;2022-08-18T05:52:51;99551.75;;;24.41;55.27
35489;BME280;21602;55.670;37.578;2022-08-18T05:55:33;99555.59;;;24.40;54.90
35489;BME280;21602;55.670;37.578;2022-08-18T05:58:24;99559.28;;;24.44;54.99
35489;BME280;21602;55.670;37.578;2022-08-18T06:01:04;99556.88;;;24.43;55.34
35489;BME280;21602;55.670;37.578;2022-08-18T06:03:43;99549.66;;;24.47;54.88
35489;BME280;21602;55.670;37.578;2022-08-18T06:06:27;99548.69;;;24.43;54.58
35489;BME280;21602;55.670;37.578;2022-08-18T06:09:06;99550.94;;;24.41;54.79
35489;BME280;21602;55.670;37.578;2022-08-18T06:11:35;99554.94;;;24.43;54.57
35489;BME280;21602;55.670;37.578;2022-08-18T06:14:00;99554.31;;;24.55;54.34
35489;BME280;21602;55.670;37.578;2022-08-18T06:22:09;99555.25;;;24.85;53.29
35489;BME280;21602;55.670;37.578;2022-08-18T06:30:25;99557.03;;;25.07;52.52
35489;BME280;21602;55.670;37.578;2022-08-18T06:33:09;99556.16;;;25.07;51.85
35489;BME280;21602;55.670;37.578;2022-08-18T06:36:01;99561.34;;;24.99;52.09
35489;BME280;21602;55.670;37.578;2022-08-18T06:38:52;99566.47;;;24.92;52.25
35489;BME280;21602;55.670;37.578;2022-08-18T06:41:32;99563.44;;;24.85;52.29
35489;BME280;21602;55.670;37.578;2022-08-18T06:49:44;99577.59;;;24.78;52.23
35489;BME280;21602;55.670;37.578;2022-08-18T06:53:06;99580.47;;;24.82;52.67
35489;BME280;21602;55.670;37.578;2022-08-18T06:55:16;99579.03;;;24.93;52.30
35489;BME280;21602;55.670;37.578;2022-08-18T06:57:54;99581.28;;;25.09;51.90
35489;BME280;21602;55.670;37.578;2022-08-18T07:00:21;99573.19;;;25.21;52.10
35489;BME280;21602;55.670;37.578;2022-08-18T07:02:58;99565.59;;;25.35;51.72
35489;BME280;21602;55.670;37.578;2022-08-18T07:05:30;99576.47;;;25.61;51.08
35489;BME280;21602;55.670;37.578;2022-08-18T07:10:42;99571.38;;;25.89;50.66
35489;BME280;21602;55.670;37.578;2022-08-18T07:13:17;99572.94;;;25.99;50.32
35489;BME280;21602;55.670;37.578;2022-08-18T07:15:43;99568.34;;;26.12;50.18
35489;BME280;21602;55.670;37.578;2022-08-18T07:18:12;99575.81;;;26.23;49.57
35489;BME280;21602;55.670;37.578;2022-08-18T07:20:42;99575.13;;;26.35;49.19
35489;BME280;21602;55.670;37.578;2022-08-18T07:23:39;99571.00;;;26.50;48.83
35489;BME280;21602;55.670;37.578;2022-08-18T07:34:09;99571.50;;;26.85;46.20
35489;BME280;21602;55.670;37.578;2022-08-18T07:36:49;99568.81;;;26.97;46.07
35489;BME280;21602;55.670;37.578;2022-08-18T07:39:22;99571.78;;;27.04;45.67
35489;BME280;21602;55.670;37.578;2022-08-18T07:42:51;99573.91;;;27.20;45.29
35489;BME280;21602;55.670;37.578;2022-08-18T07:45:30;99573.69;;;27.25;44.90
35489;BME280;21602;55.670;37.578;2022-08-18T07:50:51;99574.00;;;27.44;44.70
35489;BME280;21602;55.670;37.578;2022-08-18T07:56:41;99567.47;;;27.61;44.41
35489;BME280;21602;55.670;37.578;2022-08-18T07:59:34;99572.97;;;27.61;44.62
35489;BME280;21602;55.670;37.578;2022-08-18T08:04:58;99567.59;;;27.65;44.31
35489;BME280;21602;55.670;37.578;2022-08-18T08:12:57;99566.94;;;27.80;44.54
35489;BME280;21602;55.670;37.578;2022-08-18T08:15:40;99576.66;;;27.90;44.12
35489;BME280;21602;55.670;37.578;2022-08-18T08:18:15;99572.31;;;27.89;44.06
35489;BME280;21602;55.670;37.578;2022-08-18T08:20:56;99571.72;;;27.95;44.09
35489;BME280;21602;55.670;37.578;2022-08-18T08:29:27;99566.00;;;28.13;43.92
35489;BME280;21602;55.670;37.578;2022-08-18T08:32:04;99566.69;;;28.10;44.02
35489;BME280;21602;55.670;37.578;2022-08-18T08:34:53;99562.78;;;28.23;43.83
35489;BME280;21602;55.670;37.578;2022-08-18T08:37:45;99561.19;;;28.34;43.48
35489;BME280;21602;55.670;37.578;2022-08-18T08:43:13;99564.81;;;28.38;43.63
35489;BME280;21602;55.670;37.578;2022-08-18T08:46:14;99556.56;;;28.50;43.36
35489;BME280;21602;55.670;37.578;2022-08-18T08:48:46;99551.84;;;28.63;43.24
35489;BME280;21602;55.670;37.578;2022-08-18T08:53:59;99552.78;;;28.83;42.53
35489;BME280;21602;55.670;37.578;2022-08-18T08:56:35;99557.78;;;28.93;42.17
35489;BME280;21602;55.670;37.578;2022-08-18T08:59:09;99549.31;;;28.86;41.54
35489;BME280;21602;55.670;37.578;2022-08-18T09:04:38;99559.19;;;28.47;40.47
35489;BME280;21602;55.670;37.578;2022-08-18T09:13:11;99551.56;;;28.28;40.50
35489;BME280;21602;55.670;37.578;2022-08-18T09:18:33;99554.38;;;28.56;40.29
35489;BME280;21602;55.670;37.578;2022-08-18T09:23:50;99549.56;;;28.81;39.61
35489;BME280;21602;55.670;37.578;2022-08-18T09:26:43;99548.91;;;28.72;39.79
35489;BME280;21602;55.670;37.578;2022-08-18T09:29:25;99549.44;;;28.62;39.78
35489;BME280;21602;55.670;37.578;2022-08-18T09:35:02;99540.75;;;28.60;39.87
35489;BME280;21602;55.670;37.578;2022-08-18T09:37:48;99550.44;;;28.69;39.61
35489;BME280;21602;55.670;37.578;2022-08-18T09:40:46;99550.28;;;28.78;39.51
35489;BME280;21602;55.670;37.578;2022-08-18T09:43:39;99551.22;;;28.70;39.33
35489;BME280;21602;55.670;37.578;2022-08-18T09:49:38;99554.25;;;28.52;39.50
35489;BME280;21602;55.670;37.578;2022-08-18T09:57:31;99540.03;;;28.35;39.72
35489;BME280;21602;55.670;37.578;2022-08-18T10:10:56;99555.41;;;28.51;39.36
35489;BME280;21602;55.670;37.578;2022-08-18T10:14:04;99550.38;;;28.53;39.27
35489;BME280;21602;55.670;37.578;2022-08-18T10:22:09;99552.97;;;28.62;38.63
35489;BME280;21602;55.670;37.578;2022-08-18T10:30:04;99536.13;;;28.36;38.40
35489;BME280;21602;55.670;37.578;2022-08-18T10:32:42;99546.75;;;28.37;38.41
35489;BME280;21602;55.670;37.578;2022-08-18T10:38:24;99544.81;;;28.38;37.98
35489;BME280;21602;55.670;37.578;2022-08-18T10:41:27;99537.25;;;28.47;37.21
35489;BME280;21602;55.670;37.578;2022-08-18T10:43:54;99538.16;;;28.51;37.19
35489;BME280;21602;55.670;37.578;2022-08-18T10:46:23;99542.16;;;28.53;37.03
35489;BME280;21602;55.670;37.578;2022-08-18T10:49:25;99534.25;;;28.52;37.12
35489;BME280;21602;55.670;37.578;2022-08-18T10:52:48;99544.00;;;28.49;36.57
35489;BME280;21602;55.670;37.578;2022-08-18T10:57:42;99547.88;;;28.48;36.14
35489;BME280;21602;55.670;37.578;2022-08-18T11:00:18;99534.00;;;28.57;35.70
35489;BME280;21602;55.670;37.578;2022-08-18T11:02:58;99523.91;;;28.61;34.72
35489;BME280;21602;55.670;37.578;2022-08-18T11:05:30;99528.16;;;28.58;34.09
35489;BME280;21602;55.670;37.578;2022-08-18T11:08:00;99535.03;;;28.52;34.23
35489;BME280;21602;55.670;37.578;2022-08-18T11:10:39;99528.59;;;28.61;34.03
35489;BME280;21602;55.670;37.578;2022-08-18T11:18:35;99522.09;;;28.81;33.45
35489;BME280;21602;55.670;37.578;2022-08-18T11:24:30;99528.59;;;28.89;33.53
35489;BME280;21602;55.670;37.578;2022-08-18T11:26:59;99525.16;;;28.92;34.30
35489;BME280;21602;55.670;37.578;2022-08-18T11:29:37;99516.31;;;28.98;33.99
35489;BME280;21602;55.670;37.578;2022-08-18T11:32:23;99524.72;;;29.05;33.53
35489;BME280;21602;55.670;37.578;2022-08-18T11:40:34;99515.00;;;28.80;33.52
35489;BME280;21602;55.670;37.578;2022-08-18T11:45:46;99523.72;;;28.82;33.01
35489;BME280;21602;55.670;37.578;2022-08-18T11:48:18;99530.44;;;28.84;32.01
35489;BME280;21602;55.670;37.578;2022-08-18T12:06:36;99516.75;;;29.00;31.57
35489;BME280;21602;55.670;37.578;2022-08-18T12:09:20;99520.41;;;29.04;30.53
35489;BME280;21602;55.670;37.578;2022-08-18T12:11:55;99516.84;;;29.04;30.41
35489;BME280;21602;55.670;37.578;2022-08-18T12:14:24;99519.59;;;29.04;30.35
35489;BME280;21602;55.670;37.578;2022-08-18T12:16:51;99517.31;;;29.06;30.47
35489;BME280;21602;55.670;37.578;2022-08-18T12:19:18;99523.59;;;29.06;30.69
35489;BME280;21602;55.670;37.578;2022-08-18T12:21:50;99519.44;;;29.13;30.70
35489;BME280;21602;55.670;37.578;2022-08-18T12:24:29;99509.94;;;29.10;30.61
35489;BME280;21602;55.670;37.578;2022-08-18T12:26:56;99520.13;;;29.09;30.65
35489;BME280;21602;55.670;37.578;2022-08-18T12:29:23;99520.06;;;29.06;30.24
35489;BME280;21602;55.670;37.578;2022-08-18T12:31:51;99516.56;;;28.93;30.38
35489;BME280;21602;55.670;37.578;2022-08-18T12:34:18;99512.91;;;28.89;30.63
35489;BME280;21602;55.670;37.578;2022-08-18T12:36:45;99510.16;;;28.89;31.09
35489;BME280;21602;55.670;37.578;2022-08-18T12:39:11;99516.56;;;28.93;31.00
35489;BME280;21602;55.670;37.578;2022-08-18T12:41:37;99514.72;;;28.97;31.21
35489;BME280;21602;55.670;37.578;2022-08-18T12:44:03;99518.97;;;28.95;30.95
35489;BME280;21602;55.670;37.578;2022-08-18T12:46:30;99517.81;;;28.96;31.31
35489;BME280;21602;55.670;37.578;2022-08-18T12:48:56;99502.56;;;28.98;31.71
35489;BME280;21602;55.670;37.578;2022-08-18T12:51:22;99514.56;;;29.06;31.57
35489;BME280;21602;55.670;37.578;2022-08-18T12:53:47;99510.75;;;29.11;31.34
35489;BME280;21602;55.670;37.578;2022-08-18T12:56:24;99502.94;;;29.13;31.44
35489;BME280;21602;55.670;37.578;2022-08-18T12:58:51;99508.72;;;29.07;31.18
35489;BME280;21602;55.670;37.578;2022-08-18T13:01:18;99504.16;;;28.99;31.45
35489;BME280;21602;55.670;37.578;2022-08-18T13:03:47;99502.56;;;28.98;31.31
35489;BME280;21602;55.670;37.578;2022-08-18T13:06:13;99495.94;;;28.99;31.52
35489;BME280;21602;55.670;37.578;2022-08-18T13:08:40;99514.47;;;29.02;31.27
35489;BME280;21602;55.670;37.578;2022-08-18T13:11:06;99501.41;;;28.99;31.83
35489;BME280;21602;55.670;37.578;2022-08-18T13:13:37;99500.19;;;28.97;31.81
35489;BME280;21602;55.670;37.578;2022-08-18T13:16:07;99504.38;;;29.06;32.06
35489;BME280;21602;55.670;37.578;2022-08-18T13:18:34;99496.75;;;29.16;32.22
35489;BME280;21602;55.670;37.578;2022-08-18T13:21:00;99499.84;;;29.14;32.25
35489;BME280;21602;55.670;37.578;2022-08-18T13:23:28;99494.69;;;29.13;32.91
35489;BME280;21602;55.670;37.578;2022-08-18T13:25:56;99505.25;;;29.11;32.80
35489;BME280;21602;55.670;37.578;2022-08-18T13:28:23;99511.28;;;29.16;32.74
35489;BME280;21602;55.670;37.578;2022-08-18T13:30:49;99504.91;;;29.12;32.64
35489;BME280;21602;55.670;37.578;2022-08-18T13:33:18;99492.47;;;29.02;32.60
35489;BME280;21602;55.670;37.578;2022-08-18T13:35:45;99495.59;;;29.01;32.73
35489;BME280;21602;55.670;37.578;2022-08-18T13:38:12;99505.97;;;29.07;32.73
35489;BME280;21602;55.670;37.578;2022-08-18T13:40:39;99513.56;;;28.98;32.33
35489;BME280;21602;55.670;37.578;2022-08-18T13:43:05;99503.00;;;29.00;32.84
35489;BME280;21602;55.670;37.578;2022-08-18T13:45:32;99501.88;;;29.01;32.52
35489;BME280;21602;55.670;37.578;2022-08-18T13:47:58;99495.22;;;29.02;32.99
35489;BME280;21602;55.670;37.578;2022-08-18T13:50:24;99507.44;;;29.05;33.07
35489;BME280;21602;55.670;37.578;2022-08-18T13:52:50;99489.72;;;29.02;33.16
35489;BME280;21602;55.670;37.578;2022-08-18T13:55:17;99505.75;;;29.00;32.98
35489;BME280;21602;55.670;37.578;2022-08-18T13:57:44;99510.47;;;29.00;32.78
35489;BME280;21602;55.670;37.578;2022-08-18T14:00:22;99507.28;;;28.98;33.04
35489;BME280;21602;55.670;37.578;2022-08-18T14:02:50;99507.63;;;28.96;32.83
35489;BME280;21602;55.670;37.578;2022-08-18T14:05:21;99509.09;;;28.94;32.56
35489;BME280;21602;55.670;37.578;2022-08-18T14:07:47;99506.81;;;28.96;32.58
35489;BME280;21602;55.670;37.578;2022-08-18T14:10:14;99499.41;;;28.96;32.41
35489;BME280;21602;55.670;37.578;2022-08-18T14:12:42;99502.56;;;28.98;32.93
35489;BME280;21602;55.670;37.578;2022-08-18T14:15:10;99508.97;;;29.02;33.58
35489;BME280;21602;55.670;37.578;2022-08-18T14:17:38;99500.00;;;29.05;33.31
35489;BME280;21602;55.670;37.578;2022-08-18T14:20:05;99505.97;;;29.07;33.52
35489;BME280;21602;55.670;37.578;2022-08-18T14:22:55;99512.63;;;29.06;33.84
35489;BME280;21602;55.670;37.578;2022-08-18T14:25:39;99516.16;;;29.07;33.82
35489;BME280;21602;55.670;37.578;2022-08-18T14:28:23;99515.38;;;29.06;33.96
35489;BME280;21602;55.670;37.578;2022-08-18T14:30:49;99522.19;;;29.13;34.03
35489;BME280;21602;55.670;37.578;2022-08-18T14:33:20;99520.84;;;29.06;33.78
35489;BME280;21602;55.670;37.578;2022-08-18T14:35:46;99519.50;;;29.00;33.94
35489;BME280;21602;55.670;37.578;2022-08-18T14:38:13;99517.47;;;28.97;33.85
35489;BME280;21602;55.670;37.578;2022-08-18T14:40:44;99515.88;;;28.96;34.39
35489;BME280;21602;55.670;37.578;2022-08-18T14:43:12;99516.34;;;28.86;34.36
35489;BME280;21602;55.670;37.578;2022-08-18T14:45:39;99517.59;;;28.89;34.34
35489;BME280;21602;55.670;37.578;2022-08-18T14:48:14;99513.69;;;28.90;34.48
35489;BME280;21602;55.670;37.578;2022-08-18T14:50:41;99519.75;;;28.95;34.64
35489;BME280;21602;55.670;37.578;2022-08-18T14:53:08;99514.38;;;28.99;34.55
35489;BME280;21602;55.670;37.578;2022-08-18T14:55:34;99524.19;;;29.00;34.52
35489;BME280;21602;55.670;37.578;2022-08-18T14:58:02;99519.16;;;29.02;34.14
35489;BME280;21602;55.670;37.578;2022-08-18T15:00:29;99508.66;;;28.92;34.50
35489;BME280;21602;55.670;37.578;2022-08-18T15:02:55;99522.75;;;28.90;34.43
35489;BME280;21602;55.670;37.578;2022-08-18T15:05:22;99510.53;;;28.88;34.13
35489;BME280;21602;55.670;37.578;2022-08-18T15:07:48;99510.78;;;28.82;34.26
35489;BME280;21602;55.670;37.578;2022-08-18T15:10:15;99512.47;;;28.87;34.43
35489;BME280;21602;55.670;37.578;2022-08-18T15:12:42;99510.84;;;28.86;34.20
35489;BME280;21602;55.670;37.578;2022-08-18T15:15:11;99514.97;;;28.92;34.19
35489;BME280;21602;55.670;37.578;2022-08-18T15:17:39;99516.56;;;28.93;34.03
35489;BME280;21602;55.670;37.578;2022-08-18T15:20:05;99517.72;;;28.92;33.76
35489;BME280;21602;55.670;37.578;2022-08-18T15:22:37;99516.22;;;28.95;34.02
35489;BME280;21602;55.670;37.578;2022-08-18T15:25:22;99515.16;;;28.99;33.81
35489;BME280;21602;55.670;37.578;2022-08-18T15:28:07;99521.19;;;29.05;33.57
35489;BME280;21602;55.670;37.578;2022-08-18T15:30:34;99523.88;;;29.01;33.70
35489;BME280;21602;55.670;37.578;2022-08-18T15:33:03;99522.84;;;28.94;33.36
35489;BME280;21602;55.670;37.578;2022-08-18T15:35:30;99521.16;;;28.89;33.60
35489;BME280;21602;55.670;37.578;2022-08-18T15:37:56;99523.72;;;28.82;33.48
35489;BME280;21602;55.670;37.578;2022-08-18T15:40:24;99525.59;;;28.66;33.58